Pagrindinis puslapis
METAR-TAF:

METAR-TAF

Oro uostai :

Tulča, Rumunija

platuma: 45-11N, ilguma: 028-49E, Aukštis: 4 m

Dabartinis oras

Ataskaita buvo paskelbta 16 minutes, ne 05:00 UTC
Vėjas 1 kt nuo kintamojo kryptimis
Temperatūra 6°C
Drėgmė 61%
Slėgis 1015 hPa
Matomumas 10 km arba daugiau
nėra debesų žemiau 1500 m ir nėra kamuolinių lietaus debesų

METAR: LRTC 100500Z VRB01KT CAVOK 06/M01 Q1015

Laikas: 08:16 (05:16 UTC)

Prognozė

Ataskaita buvo paskelbta 3 valandos ir 16 minutes, ne 02:00 UTC
Prognozė galioja nuo 10 metu 03 UTC su 10 metu 12 UTC
Vėjas 4 kt nuo kintamojo kryptimis
Matomumas 10 km arba daugiau
nėra debesų žemiau 1500 m ir nėra kamuolinių lietaus debesų
Tapsmas
nuo 10 metu 07 UTC su 10 metu 09 UTC
Vėjas 10 kt iš Šiaurės/Šiaurės Vakarų
Laikinai
nuo 10 metu 09 UTC su 10 metu 12 UTC
Vėjas 15 kt iš Šiaurės/Šiaurės Vakarų su gūsio iki 25 kt

TAF: LRTC 100200Z 1003/1012 VRB04KT CAVOK BECMG 1007/1009 34010KT TEMPO 1009/1012 34015G25KT

Orai ataskaitas ir orų prognozės (METAR, TAF).

turimą stotys yra geltonos ir raudonos taškus žemėlapyje.

Perkelti pele per norėdami pamatyti stoties vardą.

Tada spustelėkite, norėdami matyti oro stebėjimo ir prognozės.

Norėdami pakeisti žemėlapį: spustelėkite ant žalios mygtukų su juodo kryžiaus žemyn,; žalią mygtuką su brūkšneliu, jei norite nutolinti; arba žalių rodyklių gretimoms žemėlapius.


METAR-TAF: